createdAt,value
2022-09-20T00:01:36.886Z,13.10
2022-09-20T00:04:05.018Z,13.38
2022-09-20T00:06:33.964Z,12.63
2022-09-20T00:09:01.559Z,13.02
2022-09-20T00:11:30.901Z,12.18
2022-09-20T00:14:00.864Z,13.68
2022-09-20T00:16:31.794Z,11.73
2022-09-20T00:19:01.247Z,11.02
2022-09-20T00:21:30.791Z,13.73
2022-09-20T00:23:58.738Z,12.23
2022-09-20T00:26:28.346Z,11.00
2022-09-20T00:28:57.472Z,11.70
2022-09-20T00:31:24.933Z,10.77
2022-09-20T00:33:56.223Z,10.23
2022-09-20T00:36:23.739Z,12.85
2022-09-20T00:38:55.872Z,11.70
2022-09-20T00:41:23.297Z,14.65
2022-09-20T00:43:50.759Z,14.25
2022-09-20T00:46:23.677Z,14.02
2022-09-20T00:48:56.104Z,14.07
2022-09-20T00:51:30.000Z,12.15
2022-09-20T00:54:01.069Z,13.32
2022-09-20T00:56:31.983Z,13.48
2022-09-20T00:59:06.595Z,13.32
2022-09-20T01:01:34.227Z,13.93
2022-09-20T01:04:02.771Z,12.88
2022-09-20T01:06:34.027Z,16.88
2022-09-20T01:09:05.509Z,19.17
2022-09-20T01:11:35.384Z,13.27
2022-09-20T01:14:03.097Z,15.23
2022-09-20T01:16:32.195Z,14.90
2022-09-20T01:19:05.381Z,13.80
2022-09-20T01:21:34.630Z,13.60
2022-09-20T01:24:13.274Z,16.15
2022-09-20T01:27:13.370Z,16.15
2022-09-20T01:30:03.586Z,14.90
2022-09-20T01:32:42.766Z,15.20
2022-09-20T01:35:11.258Z,15.05
2022-09-20T01:37:50.451Z,13.57
2022-09-20T01:40:24.729Z,12.77
2022-09-20T01:43:02.792Z,17.02
2022-09-20T01:45:32.737Z,14.82
2022-09-20T01:48:12.440Z,15.70
2022-09-20T01:53:46.346Z,14.60
2022-09-20T01:57:07.983Z,16.92
2022-09-20T01:59:57.963Z,15.32
2022-09-20T02:02:49.622Z,17.38
2022-09-20T02:05:38.606Z,14.93
2022-09-20T02:08:22.482Z,15.30
2022-09-20T02:11:07.039Z,15.88
2022-09-20T02:13:50.654Z,17.38
2022-09-20T02:16:36.090Z,22.08
2022-09-20T02:19:27.981Z,17.08
2022-09-20T02:22:10.870Z,17.67
2022-09-20T02:24:46.629Z,14.98
2022-09-20T02:27:23.744Z,16.67
2022-09-20T02:30:03.886Z,17.88
2022-09-20T02:32:59.111Z,17.55
2022-09-20T02:35:40.916Z,18.67
2022-09-20T02:38:29.334Z,19.13
2022-09-20T02:41:29.533Z,19.25
2022-09-20T02:44:04.789Z,17.25
2022-09-20T02:46:41.316Z,21.17
2022-09-20T02:49:15.399Z,18.15
2022-09-20T02:51:52.266Z,18.90
2022-09-20T02:54:34.095Z,23.98
2022-09-20T02:57:12.312Z,18.85
2022-09-20T02:59:46.885Z,20.05
2022-09-20T03:02:25.143Z,17.33
2022-09-20T03:05:06.061Z,22.00
2022-09-20T03:07:46.380Z,17.92
2022-09-20T03:10:21.761Z,14.52
2022-09-20T03:13:07.895Z,16.95
2022-09-20T03:15:49.002Z,15.25
2022-09-20T03:18:18.886Z,13.25
2022-09-20T03:20:57.954Z,13.40
2022-09-20T03:23:41.287Z,12.45
2022-09-20T03:26:18.220Z,13.35
2022-09-20T03:28:58.042Z,14.93
2022-09-20T03:31:48.359Z,12.68
2022-09-20T03:34:30.047Z,13.38
2022-09-20T03:37:13.895Z,15.95
2022-09-20T03:40:03.731Z,18.83
2022-09-20T03:42:31.898Z,15.00
2022-09-20T03:45:29.124Z,14.00
2022-09-20T03:48:28.712Z,20.58
2022-09-20T03:51:10.165Z,17.13
2022-09-20T03:53:58.109Z,20.83
2022-09-20T03:57:03.840Z,17.98
2022-09-20T03:59:50.851Z,16.85
2022-09-20T04:02:33.447Z,20.58
2022-09-20T04:05:06.382Z,12.73
2022-09-20T04:07:45.749Z,20.17
2022-09-20T04:10:30.998Z,23.70
2022-09-20T04:13:13.673Z,17.45
2022-09-20T04:15:54.571Z,20.90
2022-09-20T04:18:29.167Z,17.15
2022-09-20T04:21:04.136Z,19.80
2022-09-20T04:23:43.017Z,16.80
2022-09-20T04:26:10.970Z,22.80
2022-09-20T04:28:46.315Z,23.00
2022-09-20T04:31:24.629Z,16.67
2022-09-20T04:33:57.102Z,21.33
2022-09-20T04:36:55.878Z,23.02
2022-09-20T04:39:34.629Z,24.47
2022-09-20T04:42:53.746Z,20.83
2022-09-20T04:46:04.982Z,20.48
2022-09-20T04:49:08.269Z,25.98
2022-09-20T04:52:04.295Z,19.85
2022-09-20T04:55:05.014Z,23.35
2022-09-20T04:58:11.355Z,26.98
2022-09-20T05:00:57.720Z,25.48
2022-09-20T05:03:45.169Z,22.48
2022-09-20T05:06:34.481Z,21.83
2022-09-20T05:09:37.178Z,23.02
2022-09-20T05:12:24.369Z,34.50
2022-09-20T05:15:14.601Z,41.03
2022-09-20T05:18:07.606Z,39.65
2022-09-20T05:20:52.151Z,30.13
2022-09-20T05:24:00.094Z,32.53
2022-09-20T05:26:42.839Z,38.53
2022-09-20T05:29:18.430Z,27.65
2022-09-20T05:31:53.352Z,32.50
2022-09-20T05:34:27.265Z,36.75
2022-09-20T05:37:02.065Z,46.65
2022-09-20T05:39:37.175Z,36.20
2022-09-20T05:42:18.687Z,39.95
2022-09-20T05:44:56.636Z,31.98
2022-09-20T05:47:32.674Z,35.70
2022-09-20T05:50:16.298Z,40.65
2022-09-20T05:52:52.978Z,29.70
2022-09-20T05:55:30.966Z,39.60
2022-09-20T05:58:15.158Z,41.03
2022-09-20T06:00:48.894Z,40.90
2022-09-20T06:03:26.718Z,31.88
2022-09-20T06:06:02.980Z,37.97
2022-09-20T06:09:10.154Z,33.13
2022-09-20T06:12:05.300Z,33.10
2022-09-20T06:14:44.028Z,29.20
2022-09-20T06:17:21.923Z,31.73
2022-09-20T06:19:59.579Z,30.08
2022-09-20T06:22:29.980Z,30.98
2022-09-20T06:25:03.058Z,28.52
2022-09-20T06:27:35.082Z,25.15
2022-09-20T06:30:08.263Z,31.75
2022-09-20T06:32:35.725Z,27.25
2022-09-20T06:35:04.975Z,34.42
2022-09-20T06:37:44.360Z,37.08
2022-09-20T06:40:24.281Z,33.22
2022-09-20T06:42:51.685Z,40.08
2022-09-20T06:45:20.646Z,31.55
2022-09-20T06:47:48.178Z,33.50
2022-09-20T06:50:16.321Z,37.80
2022-09-20T06:52:44.602Z,44.45
2022-09-20T06:55:18.192Z,45.47
2022-09-20T06:57:45.699Z,37.25
2022-09-20T07:00:15.154Z,36.33
2022-09-20T07:02:44.014Z,41.72
2022-09-20T07:05:15.238Z,36.55
2022-09-20T07:07:43.467Z,37.05
2022-09-20T07:10:11.119Z,40.17
2022-09-20T07:12:38.569Z,36.42
2022-09-20T07:15:07.225Z,30.33
2022-09-20T07:17:34.887Z,29.33
2022-09-20T07:20:04.059Z,28.88
2022-09-20T07:24:59.742Z,55.67
2022-09-20T07:27:29.339Z,34.38
2022-09-20T07:29:57.393Z,32.67
2022-09-20T07:32:24.814Z,35.97
2022-09-20T07:34:52.299Z,29.98
2022-09-20T07:37:21.100Z,38.35
2022-09-20T07:39:48.645Z,31.97
2022-09-20T07:42:16.302Z,29.20
2022-09-20T07:44:43.703Z,48.08
2022-09-20T07:47:11.284Z,43.35
2022-09-20T07:49:38.849Z,40.35
2022-09-20T07:52:06.719Z,43.63
2022-09-20T07:54:35.578Z,50.70
2022-09-20T07:57:03.047Z,61.33
2022-09-20T07:59:30.486Z,42.88
2022-09-20T08:01:57.952Z,53.70
2022-09-20T08:04:26.054Z,53.03
2022-09-20T08:06:53.999Z,63.55
2022-09-20T08:09:21.333Z,47.25
2022-09-20T08:11:50.171Z,78.32
2022-09-20T08:14:18.485Z,58.57
2022-09-20T08:16:47.908Z,46.78
2022-09-20T08:19:17.114Z,42.30
2022-09-20T08:21:45.162Z,45.38
2022-09-20T08:24:13.340Z,42.83
2022-09-20T08:26:40.858Z,39.08
2022-09-20T08:29:10.547Z,39.67
2022-09-20T08:34:07.172Z,36.70
2022-09-20T08:36:37.108Z,31.38
2022-09-20T08:41:56.214Z,32.67
2022-09-20T08:44:29.564Z,32.05
2022-09-20T08:47:06.805Z,20.90
2022-09-20T08:49:35.007Z,23.33
2022-09-20T08:52:04.322Z,35.65
2022-09-20T08:54:34.720Z,28.50
2022-09-20T08:57:04.317Z,26.38
2022-09-20T08:59:33.478Z,30.67
2022-09-20T09:02:01.495Z,33.95
2022-09-20T09:04:35.699Z,29.02
2022-09-20T09:07:03.748Z,25.35
2022-09-20T09:09:37.550Z,33.00
2022-09-20T09:12:05.852Z,29.27
2022-09-20T09:14:35.873Z,29.08
2022-09-20T09:17:03.390Z,40.65
2022-09-20T09:19:33.937Z,36.20
2022-09-20T09:22:03.967Z,18.08
2022-09-20T09:27:07.832Z,24.35
2022-09-20T09:29:48.511Z,30.60
2022-09-20T09:32:22.135Z,31.33
2022-09-20T09:34:49.821Z,32.00
2022-09-20T09:37:28.609Z,39.25
2022-09-20T09:40:14.978Z,34.78
2022-09-20T09:42:49.928Z,31.73
2022-09-20T09:45:31.346Z,31.88
2022-09-20T09:48:00.673Z,31.27
2022-09-20T09:50:31.051Z,32.55
2022-09-20T09:53:10.222Z,33.40
2022-09-20T09:56:07.960Z,27.08
2022-09-20T09:59:02.216Z,39.42
2022-09-20T10:01:39.319Z,41.15
2022-09-20T10:04:16.070Z,43.50
2022-09-20T10:06:52.446Z,34.90
2022-09-20T10:09:34.265Z,40.67
2022-09-20T10:12:14.439Z,41.33
2022-09-20T10:14:57.639Z,27.52
2022-09-20T10:17:52.039Z,30.08
2022-09-20T10:20:42.896Z,27.27
2022-09-20T10:23:58.703Z,29.42
2022-09-20T10:26:32.017Z,27.40
2022-09-20T10:29:10.063Z,26.98
2022-09-20T10:31:48.383Z,27.48
2022-09-20T10:34:46.421Z,22.42
2022-09-20T10:37:19.314Z,26.20
2022-09-20T10:39:53.645Z,28.30
2022-09-20T10:42:37.968Z,24.63
2022-09-20T10:45:36.019Z,24.52
2022-09-20T10:48:05.970Z,28.43
2022-09-20T10:50:42.558Z,24.98
2022-09-20T10:53:29.234Z,25.10
2022-09-20T10:56:09.618Z,25.50
2022-09-20T10:59:03.058Z,22.50
2022-09-20T11:01:36.772Z,26.63
2022-09-20T11:04:32.505Z,20.30
2022-09-20T11:07:11.832Z,20.63
2022-09-20T11:09:43.265Z,29.35
2022-09-20T11:12:15.362Z,25.40
2022-09-20T11:14:49.414Z,21.10
2022-09-20T11:17:23.328Z,25.83
2022-09-20T11:19:59.221Z,24.80
2022-09-20T11:22:34.868Z,19.38
2022-09-20T11:25:14.064Z,21.98
2022-09-20T11:27:48.199Z,18.95
2022-09-20T11:30:19.176Z,16.88
2022-09-20T11:32:51.526Z,19.13
2022-09-20T11:35:29.319Z,14.02
2022-09-20T11:38:09.842Z,16.23
2022-09-20T11:40:43.382Z,25.38
2022-09-20T11:43:13.880Z,16.27
2022-09-20T11:45:43.511Z,22.13
2022-09-20T11:51:10.260Z,11.48
2022-09-20T11:53:55.819Z,15.20
2022-09-20T11:56:25.850Z,16.92
2022-09-20T11:58:55.823Z,14.93
2022-09-20T12:01:28.730Z,14.88
2022-09-20T12:04:20.534Z,13.50
2022-09-20T12:06:47.378Z,14.88
2022-09-20T12:09:26.433Z,15.27
2022-09-20T12:11:54.952Z,13.88
2022-09-20T12:14:25.378Z,14.50
2022-09-20T12:16:53.706Z,16.13
2022-09-20T12:19:37.427Z,26.77
2022-09-20T12:22:27.575Z,19.48
2022-09-20T12:27:59.463Z,16.05
2022-09-20T12:30:27.082Z,16.17
2022-09-20T12:32:56.940Z,14.77
2022-09-20T12:36:12.316Z,18.15
2022-09-20T12:38:47.674Z,20.90
2022-09-20T12:41:27.539Z,19.20
2022-09-20T12:44:01.748Z,14.65
2022-09-20T12:46:40.596Z,10.48
2022-09-20T12:49:26.663Z,16.77
2022-09-20T12:51:54.235Z,15.50
2022-09-20T12:54:21.770Z,13.80
2022-09-20T12:56:49.707Z,14.15
2022-09-20T12:59:25.626Z,15.18
2022-09-20T13:01:53.131Z,12.70
2022-09-20T13:04:54.376Z,10.05
2022-09-20T13:07:52.345Z,10.88
2022-09-20T13:10:34.195Z,8.70
2022-09-20T13:13:11.315Z,8.82
2022-09-20T13:15:41.004Z,11.77
2022-09-20T13:20:42.843Z,12.02
2022-09-20T13:23:19.518Z,11.25
2022-09-20T13:25:48.582Z,13.85
2022-09-20T13:28:26.900Z,18.38
2022-09-20T13:31:26.351Z,10.55
2022-09-20T13:33:54.624Z,10.88
2022-09-20T13:36:28.231Z,12.75
2022-09-20T13:38:57.487Z,15.50
2022-09-20T13:41:28.751Z,13.18
2022-09-20T13:43:56.788Z,10.93
2022-09-20T13:46:30.665Z,12.15
2022-09-20T13:49:15.177Z,10.38
2022-09-20T13:51:42.832Z,12.75
2022-09-20T13:54:25.623Z,14.55
2022-09-20T13:56:55.006Z,13.35
2022-09-20T13:59:23.558Z,13.77
2022-09-20T14:01:54.625Z,14.50
2022-09-20T14:04:24.524Z,14.77
2022-09-20T14:06:55.263Z,15.20
2022-09-20T14:09:28.555Z,13.63
2022-09-20T14:11:56.709Z,14.90
2022-09-20T14:14:25.406Z,12.32
2022-09-20T14:16:56.291Z,15.50
2022-09-20T14:19:29.035Z,14.93
2022-09-20T14:21:57.015Z,13.90
2022-09-20T14:24:29.815Z,16.52
2022-09-20T14:27:03.764Z,13.05
2022-09-20T14:29:39.630Z,12.30
2022-09-20T14:32:29.602Z,15.18
2022-09-20T14:35:03.317Z,11.73
2022-09-20T14:37:32.957Z,13.48
2022-09-20T14:40:03.130Z,15.45
2022-09-20T14:42:35.340Z,14.45
2022-09-20T14:45:04.127Z,14.25
2022-09-20T14:47:39.388Z,16.27
2022-09-20T14:50:24.858Z,16.98
2022-09-20T14:53:18.941Z,21.50
2022-09-20T14:56:00.564Z,16.98
2022-09-20T14:58:28.105Z,15.05
2022-09-20T15:00:58.553Z,17.13
2022-09-20T15:03:31.032Z,17.05
2022-09-20T15:05:58.803Z,14.15
2022-09-20T15:08:26.536Z,12.52
2022-09-20T15:10:53.908Z,12.30
2022-09-20T15:13:21.399Z,13.45
2022-09-20T15:15:51.202Z,11.95
2022-09-20T15:18:21.735Z,11.98
2022-09-20T15:20:51.183Z,11.98
2022-09-20T15:23:18.711Z,12.00
2022-09-20T15:25:46.135Z,10.82
2022-09-20T15:28:14.790Z,8.77
2022-09-20T15:30:42.206Z,8.82
2022-09-20T15:33:10.459Z,11.23
2022-09-20T15:35:38.436Z,10.68
2022-09-20T15:38:07.925Z,10.30
2022-09-20T15:40:36.120Z,9.63
2022-09-20T15:43:03.654Z,11.77
2022-09-20T15:45:31.196Z,7.97
2022-09-20T15:47:58.647Z,10.63
2022-09-20T15:50:26.107Z,7.95
2022-09-20T15:52:55.816Z,12.30
2022-09-20T15:55:28.737Z,12.02
2022-09-20T15:57:59.237Z,11.50
2022-09-20T16:00:26.819Z,9.35
2022-09-20T16:02:54.300Z,11.82
2022-09-20T16:05:21.912Z,11.75
2022-09-20T16:07:49.437Z,10.73
2022-09-20T16:10:16.842Z,12.32
2022-09-20T16:12:45.802Z,17.08
2022-09-20T16:15:13.280Z,14.70
2022-09-20T16:17:40.677Z,11.48
2022-09-20T16:20:08.993Z,15.80
2022-09-20T16:22:36.480Z,13.85
2022-09-20T16:25:04.287Z,15.70
2022-09-20T16:27:31.987Z,14.38
2022-09-20T16:30:01.307Z,14.20
2022-09-20T16:32:28.766Z,16.95
2022-09-20T16:34:56.654Z,14.07
2022-09-20T16:37:24.040Z,16.65
2022-09-20T16:39:51.453Z,15.30
2022-09-20T16:42:18.930Z,15.95
2022-09-20T16:44:46.298Z,23.35
2022-09-20T16:47:15.928Z,25.20
2022-09-20T16:49:43.510Z,24.17
2022-09-20T16:52:11.744Z,19.08
2022-09-20T16:54:39.357Z,18.33
2022-09-20T16:57:06.887Z,17.90
2022-09-20T16:59:34.286Z,21.02
2022-09-20T17:02:01.736Z,18.13
2022-09-20T17:04:30.649Z,19.52
2022-09-20T17:06:58.048Z,21.95
2022-09-20T17:09:25.575Z,20.42
2022-09-20T17:11:53.004Z,21.52
2022-09-20T17:14:21.030Z,21.73
2022-09-20T17:16:48.548Z,21.45
2022-09-20T17:19:17.963Z,22.55
2022-09-20T17:21:48.990Z,20.70
2022-09-20T17:24:17.781Z,22.13
2022-09-20T17:26:45.719Z,22.77
2022-09-20T17:29:14.665Z,19.20
2022-09-20T17:31:43.854Z,22.88
2022-09-20T17:34:12.359Z,17.13
2022-09-20T17:36:41.007Z,17.48
2022-09-20T17:39:10.948Z,22.17
2022-09-20T17:41:39.381Z,17.77
2022-09-20T17:44:06.850Z,19.23
2022-09-20T17:46:35.495Z,18.52
2022-09-20T17:49:05.175Z,23.75
2022-09-20T17:54:01.258Z,23.52
2022-09-20T17:56:30.670Z,20.38
2022-09-20T17:58:59.195Z,17.92
2022-09-20T18:01:28.143Z,20.95
2022-09-20T18:03:57.238Z,18.77
2022-09-20T18:06:26.117Z,19.67
2022-09-20T18:08:55.564Z,17.85
2022-09-20T18:11:26.897Z,16.35
2022-09-20T18:13:55.815Z,19.67
2022-09-20T18:16:23.392Z,32.07
2022-09-20T18:18:51.187Z,21.75
2022-09-20T18:21:19.880Z,16.83
2022-09-20T18:23:48.266Z,17.17
2022-09-20T18:26:17.135Z,22.10
2022-09-20T18:28:48.697Z,20.53
2022-09-20T18:31:18.265Z,19.85
2022-09-20T18:33:45.774Z,17.92
2022-09-20T18:36:13.472Z,24.27
2022-09-20T18:38:44.515Z,28.05
2022-09-20T18:41:12.516Z,26.40
2022-09-20T18:43:40.637Z,20.75
2022-09-20T18:46:08.217Z,20.20
2022-09-20T18:48:37.075Z,18.05
2022-09-20T18:51:05.359Z,21.87
2022-09-20T18:53:34.115Z,16.08
2022-09-20T18:56:06.842Z,19.40
2022-09-20T18:58:35.457Z,17.08
2022-09-20T19:01:22.604Z,21.60
2022-09-20T19:04:01.006Z,13.57
2022-09-20T19:06:34.006Z,13.88
2022-09-20T19:09:07.121Z,15.95
2022-09-20T19:11:39.488Z,12.52
2022-09-20T19:14:13.173Z,13.13
2022-09-20T19:16:40.900Z,12.75
2022-09-20T19:19:33.515Z,16.52
2022-09-20T19:22:15.093Z,19.20
2022-09-20T19:25:09.617Z,20.67
2022-09-20T19:27:37.463Z,19.20
2022-09-20T19:30:05.929Z,19.65
2022-09-20T19:32:34.327Z,16.15
2022-09-20T19:35:04.111Z,16.35
2022-09-20T19:40:28.247Z,15.70
2022-09-20T19:43:08.741Z,16.10
2022-09-20T19:45:47.126Z,13.80
2022-09-20T19:48:20.955Z,15.25
2022-09-20T19:50:52.144Z,19.98
2022-09-20T19:53:21.787Z,15.07
2022-09-20T19:55:54.109Z,12.43
2022-09-20T19:58:22.118Z,13.55
2022-09-20T20:00:50.185Z,12.85
2022-09-20T20:03:20.706Z,15.02
2022-09-20T20:06:02.419Z,13.20
2022-09-20T20:08:38.177Z,14.95
2022-09-20T20:11:13.939Z,11.98
2022-09-20T20:13:49.615Z,12.55
2022-09-20T20:16:23.535Z,12.15
2022-09-20T20:19:02.896Z,9.82
2022-09-20T20:21:42.490Z,10.75
2022-09-20T20:26:43.173Z,13.32
2022-09-20T20:29:10.709Z,10.55
2022-09-20T20:31:38.304Z,13.20
2022-09-20T20:34:05.675Z,10.30
2022-09-20T20:36:34.614Z,10.75
2022-09-20T20:39:02.026Z,11.68
2022-09-20T20:41:29.420Z,11.50
2022-09-20T20:43:56.783Z,10.73
2022-09-20T20:46:24.514Z,10.77
2022-09-20T20:48:51.985Z,10.63
2022-09-20T20:51:21.840Z,8.73
2022-09-20T20:53:51.971Z,12.07
2022-09-20T20:56:21.452Z,10.20
2022-09-20T20:58:49.666Z,10.80
2022-09-20T21:01:19.427Z,10.77
2022-09-20T21:03:48.386Z,10.15
2022-09-20T21:06:16.418Z,9.73
2022-09-20T21:08:48.981Z,9.90
2022-09-20T21:11:20.878Z,14.45
2022-09-20T21:13:48.246Z,12.30
2022-09-20T21:16:17.712Z,11.82
2022-09-20T21:18:46.594Z,11.93
2022-09-20T21:21:16.577Z,13.13
2022-09-20T21:23:44.525Z,11.13
2022-09-20T21:26:13.355Z,14.13
2022-09-20T21:28:43.714Z,17.63
2022-09-20T21:31:12.590Z,13.70
2022-09-20T21:33:41.658Z,13.02
2022-09-20T21:36:11.209Z,15.57
2022-09-20T21:38:39.304Z,13.95
2022-09-20T21:41:08.946Z,11.27
2022-09-20T21:43:36.917Z,9.77
2022-09-20T21:46:05.911Z,11.93
2022-09-20T21:48:33.282Z,12.68
2022-09-20T21:51:02.295Z,7.53
2022-09-20T21:53:31.846Z,8.88
2022-09-20T21:56:00.258Z,11.32
2022-09-20T21:58:28.046Z,14.55
2022-09-20T22:01:03.686Z,13.27
2022-09-20T22:03:34.271Z,12.15
2022-09-20T22:06:13.110Z,14.68
2022-09-20T22:08:42.568Z,12.60
2022-09-20T22:11:14.636Z,16.70
2022-09-20T22:13:43.481Z,13.70
2022-09-20T22:16:12.742Z,14.48
2022-09-20T22:18:43.146Z,13.48
2022-09-20T22:21:12.270Z,14.23
2022-09-20T22:23:40.184Z,11.98
2022-09-20T22:26:10.123Z,13.23
2022-09-20T22:28:37.844Z,16.02
2022-09-20T22:31:07.972Z,16.25
2022-09-20T22:33:35.879Z,13.65
2022-09-20T22:36:07.774Z,12.68
2022-09-20T22:38:35.121Z,11.60
2022-09-20T22:41:02.529Z,13.57
2022-09-20T22:43:32.309Z,11.68
2022-09-20T22:46:03.305Z,11.68
2022-09-20T22:48:30.966Z,12.52
2022-09-20T22:51:01.907Z,11.82
2022-09-20T22:53:31.565Z,11.50
2022-09-20T22:56:09.422Z,12.38
2022-09-20T22:58:38.135Z,10.02
2022-09-20T23:01:07.212Z,13.65
2022-09-20T23:03:35.123Z,13.00
2022-09-20T23:06:02.773Z,10.55
2022-09-20T23:08:33.129Z,10.05
2022-09-20T23:11:01.903Z,9.57
2022-09-20T23:13:29.821Z,9.70
2022-09-20T23:15:57.319Z,12.82
2022-09-20T23:18:25.068Z,9.15
2022-09-20T23:21:00.742Z,11.38
2022-09-20T23:23:29.426Z,9.90
2022-09-20T23:26:03.862Z,8.60
2022-09-20T23:28:31.240Z,9.40
2022-09-20T23:31:04.450Z,8.43
2022-09-20T23:33:32.395Z,9.25
2022-09-20T23:36:00.528Z,8.60
2022-09-20T23:38:28.378Z,8.73
2022-09-20T23:41:01.622Z,8.82
2022-09-20T23:43:29.150Z,10.63
2022-09-20T23:45:57.174Z,9.57
2022-09-20T23:48:24.587Z,10.20
2022-09-20T23:50:52.770Z,8.93
2022-09-20T23:53:20.232Z,9.60
2022-09-20T23:55:47.650Z,7.68
2022-09-20T23:58:16.919Z,9.55
